sensor_id;sensor_type;location;lat;lon;timestamp;pressure;altitude;pressure_sealevel;temperature;humidity
61908;BME280;47864;52.526;19.672;2023-05-20T00:01:33;102042.50;;;14.98;92.94
61908;BME280;47864;52.526;19.672;2023-05-20T00:03:35;102046.41;;;15.03;93.48
61908;BME280;47864;52.526;19.672;2023-05-20T00:05:36;102047.13;;;15.05;92.50
61908;BME280;47864;52.526;19.672;2023-05-20T00:07:38;102053.72;;;15.11;92.78
61908;BME280;47864;52.526;19.672;2023-05-20T00:09:39;102055.13;;;15.15;92.41
61908;BME280;47864;52.526;19.672;2023-05-20T00:11:41;102045.09;;;15.17;93.34
61908;BME280;47864;52.526;19.672;2023-05-20T00:13:43;102028.16;;;14.99;93.47
61908;BME280;47864;52.526;19.672;2023-05-20T00:15:45;102041.31;;;15.19;92.37
61908;BME280;47864;52.526;19.672;2023-05-20T00:17:46;102043.41;;;15.16;92.36
61908;BME280;47864;52.526;19.672;2023-05-20T00:19:48;102048.34;;;15.20;92.48
61908;BME280;47864;52.526;19.672;2023-05-20T00:21:50;102042.31;;;15.18;91.90
61908;BME280;47864;52.526;19.672;2023-05-20T00:23:51;102045.00;;;15.09;92.71
61908;BME280;47864;52.526;19.672;2023-05-20T00:25:53;102038.28;;;15.05;95.04
61908;BME280;47864;52.526;19.672;2023-05-20T00:27:54;102045.56;;;15.12;93.60
61908;BME280;47864;52.526;19.672;2023-05-20T00:29:56;102025.63;;;15.07;94.02
61908;BME280;47864;52.526;19.672;2023-05-20T00:31:58;102040.34;;;15.20;93.01
61908;BME280;47864;52.526;19.672;2023-05-20T00:33:59;102024.78;;;14.97;94.08
61908;BME280;47864;52.526;19.672;2023-05-20T00:36:01;102035.16;;;15.00;94.89
61908;BME280;47864;52.526;19.672;2023-05-20T00:38:03;102029.16;;;14.98;94.92
61908;BME280;47864;52.526;19.672;2023-05-20T00:40:04;102010.91;;;14.74;95.52
61908;BME280;47864;52.526;19.672;2023-05-20T00:42:06;102038.44;;;14.94;96.06
61908;BME280;47864;52.526;19.672;2023-05-20T00:44:08;102026.78;;;14.85;96.96
61908;BME280;47864;52.526;19.672;2023-05-20T00:46:09;102040.00;;;14.87;96.04
61908;BME280;47864;52.526;19.672;2023-05-20T00:48:12;102036.22;;;14.79;97.32
61908;BME280;47864;52.526;19.672;2023-05-20T00:50:13;102017.38;;;14.62;96.84
61908;BME280;47864;52.526;19.672;2023-05-20T00:52:16;102017.69;;;14.49;97.91
61908;BME280;47864;52.526;19.672;2023-05-20T00:54:18;102042.00;;;14.65;98.00
61908;BME280;47864;52.526;19.672;2023-05-20T00:56:20;102043.13;;;14.72;97.82
61908;BME280;47864;52.526;19.672;2023-05-20T00:58:21;102026.09;;;14.64;97.85
61908;BME280;47864;52.526;19.672;2023-05-20T01:00:23;102041.69;;;14.78;98.96
61908;BME280;47864;52.526;19.672;2023-05-20T01:02:25;102045.19;;;14.88;97.84
61908;BME280;47864;52.526;19.672;2023-05-20T01:04:26;102038.03;;;14.89;97.48
61908;BME280;47864;52.526;19.672;2023-05-20T01:06:28;102042.97;;;14.64;98.97
61908;BME280;47864;52.526;19.672;2023-05-20T01:08:30;102017.53;;;14.60;99.48
61908;BME280;47864;52.526;19.672;2023-05-20T01:10:32;102029.88;;;14.80;98.40
61908;BME280;47864;52.526;19.672;2023-05-20T01:12:49;102021.56;;;14.83;98.55
61908;BME280;47864;52.526;19.672;2023-05-20T01:15:00;102009.78;;;14.76;99.03
61908;BME280;47864;52.526;19.672;2023-05-20T01:17:07;102025.38;;;14.81;99.32
61908;BME280;47864;52.526;19.672;2023-05-20T01:19:37;102020.91;;;14.72;100.00
61908;BME280;47864;52.526;19.672;2023-05-20T01:21:41;102023.84;;;14.69;100.00
61908;BME280;47864;52.526;19.672;2023-05-20T01:23:43;102017.13;;;14.65;100.00
61908;BME280;47864;52.526;19.672;2023-05-20T01:25:45;102013.88;;;14.61;100.00
61908;BME280;47864;52.526;19.672;2023-05-20T01:27:47;102023.13;;;14.76;100.00
61908;BME280;47864;52.526;19.672;2023-05-20T01:29:50;102008.66;;;14.69;100.00
61908;BME280;47864;52.526;19.672;2023-05-20T01:31:52;102017.66;;;14.68;100.00
61908;BME280;47864;52.526;19.672;2023-05-20T01:33:55;102021.03;;;14.70;100.00
61908;BME280;47864;52.526;19.672;2023-05-20T01:35:57;102020.59;;;14.75;100.00
61908;BME280;47864;52.526;19.672;2023-05-20T01:38:00;102019.91;;;14.73;100.00
61908;BME280;47864;52.526;19.672;2023-05-20T01:40:05;102021.44;;;14.75;100.00
61908;BME280;47864;52.526;19.672;2023-05-20T01:42:09;102009.34;;;14.81;100.00
61908;BME280;47864;52.526;19.672;2023-05-20T01:44:11;102010.59;;;14.87;100.00
61908;BME280;47864;52.526;19.672;2023-05-20T01:46:14;102005.25;;;14.87;100.00
61908;BME280;47864;52.526;19.672;2023-05-20T01:48:15;102002.84;;;14.83;100.00
61908;BME280;47864;52.526;19.672;2023-05-20T01:50:17;102020.44;;;14.96;100.00
61908;BME280;47864;52.526;19.672;2023-05-20T01:52:19;102016.94;;;14.85;100.00
61908;BME280;47864;52.526;19.672;2023-05-20T01:54:21;102013.00;;;14.90;100.00
61908;BME280;47864;52.526;19.672;2023-05-20T01:56:22;102004.34;;;14.49;100.00
61908;BME280;47864;52.526;19.672;2023-05-20T01:58:24;102011.91;;;14.63;100.00
61908;BME280;47864;52.526;19.672;2023-05-20T02:00:25;102008.78;;;14.77;100.00
61908;BME280;47864;52.526;19.672;2023-05-20T02:02:27;102009.19;;;14.82;100.00
61908;BME280;47864;52.526;19.672;2023-05-20T02:04:29;101992.91;;;14.76;100.00
61908;BME280;47864;52.526;19.672;2023-05-20T02:06:30;102013.84;;;14.80;100.00
61908;BME280;47864;52.526;19.672;2023-05-20T02:08:32;102009.63;;;14.88;100.00
61908;BME280;47864;52.526;19.672;2023-05-20T02:10:34;102001.22;;;14.73;100.00
61908;BME280;47864;52.526;19.672;2023-05-20T02:12:35;102016.22;;;14.83;100.00
61908;BME280;47864;52.526;19.672;2023-05-20T02:14:37;102017.25;;;14.73;100.00
61908;BME280;47864;52.526;19.672;2023-05-20T02:16:39;102016.94;;;14.76;100.00
61908;BME280;47864;52.526;19.672;2023-05-20T02:18:40;102014.53;;;14.82;100.00
61908;BME280;47864;52.526;19.672;2023-05-20T02:20:42;102000.06;;;14.75;100.00
61908;BME280;47864;52.526;19.672;2023-05-20T02:22:43;102019.59;;;14.76;100.00
61908;BME280;47864;52.526;19.672;2023-05-20T02:24:45;102023.00;;;14.78;100.00
61908;BME280;47864;52.526;19.672;2023-05-20T02:26:46;102022.66;;;14.91;100.00
61908;BME280;47864;52.526;19.672;2023-05-20T02:28:48;101994.47;;;14.69;100.00
61908;BME280;47864;52.526;19.672;2023-05-20T02:30:50;102016.81;;;14.77;100.00
61908;BME280;47864;52.526;19.672;2023-05-20T02:32:51;102023.13;;;14.76;100.00
61908;BME280;47864;52.526;19.672;2023-05-20T02:34:54;102025.25;;;14.63;100.00
61908;BME280;47864;52.526;19.672;2023-05-20T02:36:55;102025.13;;;14.65;100.00
61908;BME280;47864;52.526;19.672;2023-05-20T02:38:57;102018.50;;;14.78;100.00
61908;BME280;47864;52.526;19.672;2023-05-20T02:40:58;102005.59;;;14.74;100.00
61908;BME280;47864;52.526;19.672;2023-05-20T02:43:00;102026.50;;;14.88;100.00
61908;BME280;47864;52.526;19.672;2023-05-20T02:45:01;102019.75;;;14.74;100.00
61908;BME280;47864;52.526;19.672;2023-05-20T02:47:03;102002.19;;;14.72;100.00
61908;BME280;47864;52.526;19.672;2023-05-20T02:49:05;102007.09;;;14.67;100.00
61908;BME280;47864;52.526;19.672;2023-05-20T02:51:06;102008.25;;;14.64;100.00
61908;BME280;47864;52.526;19.672;2023-05-20T02:53:08;102016.41;;;14.72;100.00
61908;BME280;47864;52.526;19.672;2023-05-20T02:55:10;102010.63;;;14.67;100.00
61908;BME280;47864;52.526;19.672;2023-05-20T02:57:12;102009.81;;;14.57;100.00
61908;BME280;47864;52.526;19.672;2023-05-20T02:59:14;102007.28;;;14.56;99.70
61908;BME280;47864;52.526;19.672;2023-05-20T03:01:15;102010.81;;;14.56;100.00
61908;BME280;47864;52.526;19.672;2023-05-20T03:03:17;102006.13;;;14.58;100.00
61908;BME280;47864;52.526;19.672;2023-05-20T03:05:19;102009.38;;;14.71;99.93
61908;BME280;47864;52.526;19.672;2023-05-20T03:07:20;102026.06;;;14.83;99.30
61908;BME280;47864;52.526;19.672;2023-05-20T03:09:24;102023.50;;;14.91;99.86
61908;BME280;47864;52.526;19.672;2023-05-20T03:11:26;102001.63;;;14.78;100.00
61908;BME280;47864;52.526;19.672;2023-05-20T03:13:28;102015.50;;;14.91;100.00
61908;BME280;47864;52.526;19.672;2023-05-20T03:15:29;102016.91;;;14.95;100.00
61908;BME280;47864;52.526;19.672;2023-05-20T03:17:31;101989.94;;;14.79;98.91
61908;BME280;47864;52.526;19.672;2023-05-20T03:19:32;102021.69;;;14.92;98.07
61908;BME280;47864;52.526;19.672;2023-05-20T03:21:34;102028.44;;;14.96;95.77
61908;BME280;47864;52.526;19.672;2023-05-20T03:23:35;102005.72;;;14.72;95.75
61908;BME280;47864;52.526;19.672;2023-05-20T03:25:38;102027.75;;;14.94;95.53
61908;BME280;47864;52.526;19.672;2023-05-20T03:27:40;102023.25;;;14.84;94.40
61908;BME280;47864;52.526;19.672;2023-05-20T03:29:41;102018.75;;;14.75;95.91
61908;BME280;47864;52.526;19.672;2023-05-20T03:31:43;102023.38;;;14.83;95.53
61908;BME280;47864;52.526;19.672;2023-05-20T03:33:45;102031.84;;;14.78;94.90
61908;BME280;47864;52.526;19.672;2023-05-20T03:35:47;102036.22;;;14.79;96.20
61908;BME280;47864;52.526;19.672;2023-05-20T03:37:48;102025.66;;;14.78;96.28
61908;BME280;47864;52.526;19.672;2023-05-20T03:39:49;102047.03;;;14.88;95.41
61908;BME280;47864;52.526;19.672;2023-05-20T03:41:51;102020.72;;;14.83;94.84
61908;BME280;47864;52.526;19.672;2023-05-20T03:43:53;102040.81;;;14.97;94.43
61908;BME280;47864;52.526;19.672;2023-05-20T03:45:54;102029.03;;;14.90;94.47
61908;BME280;47864;52.526;19.672;2023-05-20T03:47:56;102029.44;;;14.85;95.32
61908;BME280;47864;52.526;19.672;2023-05-20T03:49:58;102037.19;;;14.78;97.33
61908;BME280;47864;52.526;19.672;2023-05-20T03:51:59;102050.69;;;14.87;96.23
61908;BME280;47864;52.526;19.672;2023-05-20T03:54:01;102049.00;;;14.85;94.95
61908;BME280;47864;52.526;19.672;2023-05-20T03:56:02;102052.03;;;15.00;94.43
61908;BME280;47864;52.526;19.672;2023-05-20T03:58:04;102052.88;;;15.01;94.93
61908;BME280;47864;52.526;19.672;2023-05-20T04:00:06;102050.94;;;14.83;94.38
61908;BME280;47864;52.526;19.672;2023-05-20T04:02:08;102040.25;;;14.83;94.17
61908;BME280;47864;52.526;19.672;2023-05-20T04:04:09;102020.63;;;14.65;92.49
61908;BME280;47864;52.526;19.672;2023-05-20T04:06:12;102058.81;;;14.85;93.57
61908;BME280;47864;52.526;19.672;2023-05-20T04:08:14;102053.06;;;14.90;93.08
61908;BME280;47864;52.526;19.672;2023-05-20T04:10:18;102050.94;;;14.93;92.35
61908;BME280;47864;52.526;19.672;2023-05-20T04:12:19;102041.94;;;14.84;93.63
61908;BME280;47864;52.526;19.672;2023-05-20T04:14:21;102057.56;;;14.99;92.23
61908;BME280;47864;52.526;19.672;2023-05-20T04:16:23;102050.09;;;14.93;94.23
61908;BME280;47864;52.526;19.672;2023-05-20T04:18:24;102059.94;;;15.02;92.09
61908;BME280;47864;52.526;19.672;2023-05-20T04:20:26;102064.03;;;14.87;90.31
61908;BME280;47864;52.526;19.672;2023-05-20T04:22:27;102062.47;;;14.94;91.70
61908;BME280;47864;52.526;19.672;2023-05-20T04:24:29;102047.56;;;14.91;90.21
61908;BME280;47864;52.526;19.672;2023-05-20T04:26:30;102038.75;;;14.81;91.20
61908;BME280;47864;52.526;19.672;2023-05-20T04:28:32;102049.97;;;14.75;91.09
61908;BME280;47864;52.526;19.672;2023-05-20T04:30:34;102046.72;;;14.91;91.03
61908;BME280;47864;52.526;19.672;2023-05-20T04:32:35;102056.28;;;15.03;90.07
61908;BME280;47864;52.526;19.672;2023-05-20T04:34:37;102051.19;;;15.00;90.83
61908;BME280;47864;52.526;19.672;2023-05-20T04:36:38;102041.53;;;14.99;91.27
61908;BME280;47864;52.526;19.672;2023-05-20T04:38:40;102053.16;;;15.07;90.55
61908;BME280;47864;52.526;19.672;2023-05-20T04:40:42;102046.28;;;15.05;92.49
61908;BME280;47864;52.526;19.672;2023-05-20T04:42:44;102038.16;;;14.87;89.75
61908;BME280;47864;52.526;19.672;2023-05-20T04:44:45;102048.13;;;14.95;90.62
61908;BME280;47864;52.526;19.672;2023-05-20T04:46:47;102050.81;;;14.95;91.89
61908;BME280;47864;52.526;19.672;2023-05-20T04:48:48;102052.22;;;14.99;90.42
61908;BME280;47864;52.526;19.672;2023-05-20T04:50:50;102046.69;;;15.00;92.23
61908;BME280;47864;52.526;19.672;2023-05-20T04:52:51;102049.34;;;15.10;90.56
61908;BME280;47864;52.526;19.672;2023-05-20T04:54:53;102025.63;;;14.97;90.60
61908;BME280;47864;52.526;19.672;2023-05-20T04:56:55;102049.06;;;15.22;89.38
61908;BME280;47864;52.526;19.672;2023-05-20T04:58:56;102048.03;;;15.23;88.34
61908;BME280;47864;52.526;19.672;2023-05-20T05:00:58;102052.81;;;15.30;88.38
61908;BME280;47864;52.526;19.672;2023-05-20T05:02:59;102049.69;;;15.34;88.50
61908;BME280;47864;52.526;19.672;2023-05-20T05:05:01;102053.19;;;15.44;87.88
61908;BME280;47864;52.526;19.672;2023-05-20T05:07:03;102047.09;;;15.52;88.99
61908;BME280;47864;52.526;19.672;2023-05-20T05:09:05;102028.53;;;15.50;87.98
61908;BME280;47864;52.526;19.672;2023-05-20T05:11:06;102051.00;;;15.67;87.06
61908;BME280;47864;52.526;19.672;2023-05-20T05:13:08;102033.34;;;15.56;87.19
61908;BME280;47864;52.526;19.672;2023-05-20T05:15:10;102036.41;;;15.62;85.65
61908;BME280;47864;52.526;19.672;2023-05-20T05:17:11;102032.31;;;15.57;85.69
61908;BME280;47864;52.526;19.672;2023-05-20T05:19:13;102052.41;;;15.71;86.75
61908;BME280;47864;52.526;19.672;2023-05-20T05:21:15;102046.50;;;15.68;85.74
61908;BME280;47864;52.526;19.672;2023-05-20T05:23:16;102043.91;;;15.76;85.01
61908;BME280;47864;52.526;19.672;2023-05-20T05:25:18;102054.38;;;15.69;85.21
61908;BME280;47864;52.526;19.672;2023-05-20T05:27:20;102052.69;;;15.68;85.25
61908;BME280;47864;52.526;19.672;2023-05-20T05:29:21;102048.66;;;15.82;85.22
61908;BME280;47864;52.526;19.672;2023-05-20T05:31:23;102042.78;;;15.78;86.43
61908;BME280;47864;52.526;19.672;2023-05-20T05:33:24;102052.94;;;15.75;84.91
61908;BME280;47864;52.526;19.672;2023-05-20T05:35:26;102044.19;;;16.00;85.41
61908;BME280;47864;52.526;19.672;2023-05-20T05:37:28;102040.91;;;16.06;83.76
61908;BME280;47864;52.526;19.672;2023-05-20T05:39:29;102058.44;;;16.18;82.59
61908;BME280;47864;52.526;19.672;2023-05-20T05:41:31;102055.06;;;16.16;80.75
61908;BME280;47864;52.526;19.672;2023-05-20T05:43:33;102056.16;;;16.23;81.01
61908;BME280;47864;52.526;19.672;2023-05-20T05:45:35;102050.56;;;16.34;82.09
61908;BME280;47864;52.526;19.672;2023-05-20T05:47:36;102061.00;;;16.55;80.37
61908;BME280;47864;52.526;19.672;2023-05-20T05:49:38;102056.09;;;16.68;80.49
61908;BME280;47864;52.526;19.672;2023-05-20T05:51:40;102058.69;;;16.78;80.27
61908;BME280;47864;52.526;19.672;2023-05-20T05:53:41;102048.28;;;16.75;79.36
61908;BME280;47864;52.526;19.672;2023-05-20T05:55:45;102057.53;;;16.81;80.79
61908;BME280;47864;52.526;19.672;2023-05-20T05:57:47;102048.88;;;16.51;79.62
61908;BME280;47864;52.526;19.672;2023-05-20T05:59:48;102057.16;;;16.76;81.15
61908;BME280;47864;52.526;19.672;2023-05-20T06:01:50;102051.81;;;17.01;79.35
61908;BME280;47864;52.526;19.672;2023-05-20T06:03:51;102056.44;;;16.91;76.94
61908;BME280;47864;52.526;19.672;2023-05-20T06:05:53;102056.22;;;16.85;76.99
61908;BME280;47864;52.526;19.672;2023-05-20T06:07:55;102045.72;;;16.91;77.65
61908;BME280;47864;52.526;19.672;2023-05-20T06:09:56;102068.03;;;17.18;81.71
61908;BME280;47864;52.526;19.672;2023-05-20T06:11:58;102064.41;;;17.27;78.54
61908;BME280;47864;52.526;19.672;2023-05-20T06:14:00;102068.44;;;17.31;76.84
61908;BME280;47864;52.526;19.672;2023-05-20T06:16:02;102067.66;;;17.46;76.84
61908;BME280;47864;52.526;19.672;2023-05-20T06:18:04;102056.44;;;17.43;74.00
61908;BME280;47864;52.526;19.672;2023-05-20T06:20:06;102058.28;;;17.42;74.38
61908;BME280;47864;52.526;19.672;2023-05-20T06:22:07;102069.22;;;17.49;77.86
61908;BME280;47864;52.526;19.672;2023-05-20T06:24:09;102066.56;;;17.57;76.24
61908;BME280;47864;52.526;19.672;2023-05-20T06:26:10;102070.41;;;17.55;73.82
61908;BME280;47864;52.526;19.672;2023-05-20T06:28:12;102067.81;;;17.71;74.22
61908;BME280;47864;52.526;19.672;2023-05-20T06:30:13;102066.56;;;17.57;74.01
61908;BME280;47864;52.526;19.672;2023-05-20T06:32:15;102064.34;;;17.78;73.49
61908;BME280;47864;52.526;19.672;2023-05-20T06:34:16;102063.94;;;17.65;75.75
61908;BME280;47864;52.526;19.672;2023-05-20T06:36:18;102057.63;;;17.48;80.02
61908;BME280;47864;52.526;19.672;2023-05-20T06:38:20;102058.91;;;17.62;75.62
61908;BME280;47864;52.526;19.672;2023-05-20T06:40:21;102072.94;;;17.56;76.54
61908;BME280;47864;52.526;19.672;2023-05-20T06:42:23;102065.38;;;17.85;75.20
61908;BME280;47864;52.526;19.672;2023-05-20T06:44:25;102052.41;;;17.73;77.78
61908;BME280;47864;52.526;19.672;2023-05-20T06:46:27;102059.84;;;17.87;75.45
61908;BME280;47864;52.526;19.672;2023-05-20T06:48:28;102054.75;;;17.68;77.07
61908;BME280;47864;52.526;19.672;2023-05-20T06:50:30;102055.75;;;17.67;77.91
61908;BME280;47864;52.526;19.672;2023-05-20T06:52:32;102052.16;;;17.92;74.41
61908;BME280;47864;52.526;19.672;2023-05-20T06:54:33;102055.22;;;18.30;75.80
61908;BME280;47864;52.526;19.672;2023-05-20T06:56:35;102064.00;;;18.56;72.48
61908;BME280;47864;52.526;19.672;2023-05-20T06:58:36;102061.88;;;18.76;71.53
61908;BME280;47864;52.526;19.672;2023-05-20T07:00:38;102060.66;;;18.86;70.92
61908;BME280;47864;52.526;19.672;2023-05-20T07:02:41;102039.56;;;19.38;72.47
61908;BME280;47864;52.526;19.672;2023-05-20T07:04:42;102059.94;;;19.80;68.33
61908;BME280;47864;52.526;19.672;2023-05-20T07:06:44;102032.72;;;20.06;68.91
61908;BME280;47864;52.526;19.672;2023-05-20T07:08:45;102030.44;;;20.18;67.06
61908;BME280;47864;52.526;19.672;2023-05-20T07:10:47;102046.84;;;20.31;66.37
61908;BME280;47864;52.526;19.672;2023-05-20T07:12:48;102031.75;;;20.67;64.68
61908;BME280;47864;52.526;19.672;2023-05-20T07:14:50;102044.88;;;20.70;65.21
61908;BME280;47864;52.526;19.672;2023-05-20T07:16:52;102040.97;;;20.58;64.04
61908;BME280;47864;52.526;19.672;2023-05-20T07:18:53;102044.59;;;20.65;64.21
61908;BME280;47864;52.526;19.672;2023-05-20T07:20:55;102037.63;;;20.71;64.35
61908;BME280;47864;52.526;19.672;2023-05-20T07:22:57;102037.63;;;20.71;66.11
61908;BME280;47864;52.526;19.672;2023-05-20T07:24:58;102034.09;;;20.70;63.98
61908;BME280;47864;52.526;19.672;2023-05-20T07:27:00;102031.25;;;20.49;62.21
61908;BME280;47864;52.526;19.672;2023-05-20T07:29:02;102021.09;;;20.51;63.76
61908;BME280;47864;52.526;19.672;2023-05-20T07:31:04;102034.34;;;20.83;63.51
61908;BME280;47864;52.526;19.672;2023-05-20T07:33:06;102029.22;;;21.03;62.99
61908;BME280;47864;52.526;19.672;2023-05-20T07:35:07;102032.00;;;21.33;62.01
61908;BME280;47864;52.526;19.672;2023-05-20T07:37:09;102040.81;;;21.26;62.43
61908;BME280;47864;52.526;19.672;2023-05-20T07:39:11;102028.59;;;21.16;61.50
61908;BME280;47864;52.526;19.672;2023-05-20T07:41:15;102023.59;;;21.57;63.27
61908;BME280;47864;52.526;19.672;2023-05-20T07:43:16;102001.75;;;21.22;60.85
61908;BME280;47864;52.526;19.672;2023-05-20T07:45:18;102008.34;;;21.85;60.06
61908;BME280;47864;52.526;19.672;2023-05-20T07:47:20;102016.41;;;22.15;58.82
61908;BME280;47864;52.526;19.672;2023-05-20T07:49:21;102020.75;;;22.16;59.08
61908;BME280;47864;52.526;19.672;2023-05-20T07:51:23;102022.69;;;22.64;58.52
61908;BME280;47864;52.526;19.672;2023-05-20T07:53:25;102018.63;;;22.75;56.80
61908;BME280;47864;52.526;19.672;2023-05-20T07:55:26;102022.97;;;22.48;60.26
61908;BME280;47864;52.526;19.672;2023-05-20T07:57:28;102012.31;;;22.68;58.24
61908;BME280;47864;52.526;19.672;2023-05-20T07:59:29;102019.47;;;21.61;59.25
61908;BME280;47864;52.526;19.672;2023-05-20T08:01:31;101998.34;;;21.64;59.32
61908;BME280;47864;52.526;19.672;2023-05-20T08:03:33;102012.66;;;22.16;59.74
61908;BME280;47864;52.526;19.672;2023-05-20T08:05:37;102008.91;;;22.81;57.50
61908;BME280;47864;52.526;19.672;2023-05-20T08:07:38;102005.06;;;22.26;56.30
61908;BME280;47864;52.526;19.672;2023-05-20T08:09:40;102007.25;;;21.80;62.12
61908;BME280;47864;52.526;19.672;2023-05-20T08:11:42;102000.78;;;22.81;58.46
61908;BME280;47864;52.526;19.672;2023-05-20T08:13:45;101999.72;;;22.82;58.85
61908;BME280;47864;52.526;19.672;2023-05-20T08:15:47;102001.41;;;22.12;59.52
61908;BME280;47864;52.526;19.672;2023-05-20T08:17:48;101979.47;;;22.50;59.50
61908;BME280;47864;52.526;19.672;2023-05-20T08:19:50;101992.38;;;22.48;57.47
61908;BME280;47864;52.526;19.672;2023-05-20T08:21:52;101990.00;;;22.87;59.42
61908;BME280;47864;52.526;19.672;2023-05-20T08:23:53;101996.22;;;23.15;56.96
61908;BME280;47864;52.526;19.672;2023-05-20T08:25:55;101985.03;;;22.42;60.03
61908;BME280;47864;52.526;19.672;2023-05-20T08:27:57;101976.09;;;21.62;61.49
61908;BME280;47864;52.526;19.672;2023-05-20T08:29:58;101991.59;;;22.32;59.85
61908;BME280;47864;52.526;19.672;2023-05-20T08:32:01;101991.72;;;22.46;59.51
61908;BME280;47864;52.526;19.672;2023-05-20T08:34:03;101994.13;;;22.13;59.50
61908;BME280;47864;52.526;19.672;2023-05-20T08:36:05;101990.34;;;22.07;60.18
61908;BME280;47864;52.526;19.672;2023-05-20T08:38:08;101981.13;;;22.01;63.90
61908;BME280;47864;52.526;19.672;2023-05-20T08:40:10;101990.53;;;21.91;65.76
61908;BME280;47864;52.526;19.672;2023-05-20T08:42:12;101942.31;;;22.09;61.41
61908;BME280;47864;52.526;19.672;2023-05-20T08:44:15;101979.38;;;22.36;61.13
61908;BME280;47864;52.526;19.672;2023-05-20T08:46:18;101970.63;;;22.34;60.91
61908;BME280;47864;52.526;19.672;2023-05-20T08:48:23;101968.91;;;21.91;62.73
61908;BME280;47864;52.526;19.672;2023-05-20T08:50:26;101987.56;;;22.22;62.80
61908;BME280;47864;52.526;19.672;2023-05-20T08:52:30;101967.19;;;22.47;60.22
61908;BME280;47864;52.526;19.672;2023-05-20T08:54:42;101979.69;;;22.48;62.29
61908;BME280;47864;52.526;19.672;2023-05-20T08:56:45;101980.81;;;22.11;61.52
61908;BME280;47864;52.526;19.672;2023-05-20T08:58:46;101979.88;;;22.25;63.49
61908;BME280;47864;52.526;19.672;2023-05-20T09:00:48;101964.94;;;22.51;59.88
61908;BME280;47864;52.526;19.672;2023-05-20T09:02:50;101980.78;;;22.54;61.16
61908;BME280;47864;52.526;19.672;2023-05-20T09:04:51;101992.69;;;22.81;63.01
61908;BME280;47864;52.526;19.672;2023-05-20T09:06:53;101982.69;;;22.81;61.42
61908;BME280;47864;52.526;19.672;2023-05-20T09:08:54;101978.16;;;22.39;61.31
61908;BME280;47864;52.526;19.672;2023-05-20T09:10:56;101977.97;;;22.68;62.23
61908;BME280;47864;52.526;19.672;2023-05-20T09:12:59;101988.13;;;22.88;62.62
61908;BME280;47864;52.526;19.672;2023-05-20T09:15:01;101981.13;;;23.00;61.34
61908;BME280;47864;52.526;19.672;2023-05-20T09:17:04;101979.78;;;23.58;62.45
61908;BME280;47864;52.526;19.672;2023-05-20T09:19:06;101986.72;;;22.98;61.08
61908;BME280;47864;52.526;19.672;2023-05-20T09:21:09;101980.47;;;22.70;63.62
61908;BME280;47864;52.526;19.672;2023-05-20T09:23:10;101977.97;;;22.19;65.63
61908;BME280;47864;52.526;19.672;2023-05-20T09:25:12;101976.84;;;22.56;63.55
61908;BME280;47864;52.526;19.672;2023-05-20T09:27:13;101981.41;;;22.56;64.99
61908;BME280;47864;52.526;19.672;2023-05-20T09:29:15;101978.69;;;23.05;63.25
61908;BME280;47864;52.526;19.672;2023-05-20T09:31:16;101953.75;;;23.64;61.44
61908;BME280;47864;52.526;19.672;2023-05-20T09:33:18;101980.09;;;23.42;59.77
61908;BME280;47864;52.526;19.672;2023-05-20T09:35:20;101974.44;;;23.71;60.16
61908;BME280;47864;52.526;19.672;2023-05-20T09:37:24;101977.06;;;23.58;63.44
61908;BME280;47864;52.526;19.672;2023-05-20T09:39:29;101971.25;;;23.20;64.01
61908;BME280;47864;52.526;19.672;2023-05-20T09:41:37;101962.63;;;23.03;60.83
61908;BME280;47864;52.526;19.672;2023-05-20T09:43:39;101955.50;;;23.37;62.49
61908;BME280;47864;52.526;19.672;2023-05-20T09:45:41;101950.34;;;23.48;60.31
61908;BME280;47864;52.526;19.672;2023-05-20T09:47:44;101969.84;;;23.78;60.63
61908;BME280;47864;52.526;19.672;2023-05-20T09:49:46;101974.91;;;24.01;60.94
61908;BME280;47864;52.526;19.672;2023-05-20T09:51:48;101966.69;;;23.68;61.65
61908;BME280;47864;52.526;19.672;2023-05-20T09:53:50;101957.34;;;23.90;60.72
61908;BME280;47864;52.526;19.672;2023-05-20T09:55:54;101963.03;;;24.15;60.12
61908;BME280;47864;52.526;19.672;2023-05-20T09:57:56;101941.78;;;24.19;60.56
61908;BME280;47864;52.526;19.672;2023-05-20T09:59:59;101965.78;;;24.22;60.05
61908;BME280;47864;52.526;19.672;2023-05-20T10:02:01;101953.41;;;24.06;62.34
61908;BME280;47864;52.526;19.672;2023-05-20T10:04:04;101960.75;;;24.19;60.08
61908;BME280;47864;52.526;19.672;2023-05-20T10:06:31;101959.28;;;24.10;59.34
61908;BME280;47864;52.526;19.672;2023-05-20T10:08:52;101954.94;;;24.48;58.85
61908;BME280;47864;52.526;19.672;2023-05-20T10:15:52;101960.56;;;24.34;62.73
61908;BME280;47864;52.526;19.672;2023-05-20T10:18:08;101946.59;;;24.43;60.29
61908;BME280;47864;52.526;19.672;2023-05-20T10:20:12;101947.84;;;24.47;60.14
61908;BME280;47864;52.526;19.672;2023-05-20T10:22:13;101952.19;;;24.15;61.16
61908;BME280;47864;52.526;19.672;2023-05-20T10:24:14;101939.94;;;24.46;65.00
61908;BME280;47864;52.526;19.672;2023-05-20T10:26:17;101951.16;;;24.16;61.29
61908;BME280;47864;52.526;19.672;2023-05-20T10:28:33;101939.19;;;23.71;63.49
61908;BME280;47864;52.526;19.672;2023-05-20T10:30:34;101933.34;;;23.68;63.06
61908;BME280;47864;52.526;19.672;2023-05-20T10:32:48;101934.69;;;23.44;64.89
61908;BME280;47864;52.526;19.672;2023-05-20T10:34:50;101909.13;;;23.53;62.91